Swartz Creek, Michigan
Current Conditions -  °F | °C
As of 5:53 PM on Tuesday 27 Jan 2015 (Local Time) from KFNT Reporting Station
Clear Clear  
Wind Chill: 12°   Ceiling: Unl
Heat Index: 22°   Visibility: 10mi
Dew Point: 10°   Wind: 9mph
Humidity: 60%   Direction: 350°N
Pressure: 30.2"   Gusts: NA
Location:  42.96°N, 83.83°W
Report Text: KFNT 272253Z 35008KT 10SM CLR M06/M12 A3020 RMK AO2 SLP241 T10561122
Loading
Personal Weather Stations






























Interactive Weather Map New forecast layout! Learn more

10-Day Weather Forecast

Advertisements
Track Severe Weather on mobile